createdAt,value
2023-11-01T00:01:29.018Z,13.10
2023-11-01T00:03:56.566Z,13.11
2023-11-01T00:06:24.393Z,13.04
2023-11-01T00:08:51.695Z,13.05
2023-11-01T00:11:19.337Z,13.09
2023-11-01T00:13:46.724Z,13.08
2023-11-01T00:16:14.249Z,13.06
2023-11-01T00:18:41.489Z,13.14
2023-11-01T00:21:09.208Z,13.11
2023-11-01T00:23:36.812Z,13.05
2023-11-01T00:26:04.723Z,13.02
2023-11-01T00:28:31.914Z,13.06
2023-11-01T00:30:59.592Z,13.05
2023-11-01T00:33:28.650Z,13.06
2023-11-01T00:35:56.332Z,13.13
2023-11-01T00:38:24.376Z,13.09
2023-11-01T00:40:52.406Z,13.09
2023-11-01T00:43:19.993Z,13.02
2023-11-01T00:45:47.818Z,13.07
2023-11-01T00:48:17.984Z,13.11
2023-11-01T00:50:47.206Z,13.07
2023-11-01T00:53:15.830Z,12.91
2023-11-01T00:55:48.989Z,12.88
2023-11-01T00:58:16.280Z,12.83
2023-11-01T01:00:44.034Z,12.76
2023-11-01T01:03:12.602Z,12.67
2023-11-01T01:05:40.253Z,12.68
2023-11-01T01:08:07.469Z,12.63
2023-11-01T01:10:35.116Z,12.63
2023-11-01T01:13:02.796Z,12.63
2023-11-01T01:15:30.618Z,12.59
2023-11-01T01:17:59.503Z,12.60
2023-11-01T01:20:27.735Z,12.53
2023-11-01T01:23:14.792Z,12.52
2023-11-01T01:25:42.556Z,12.55
2023-11-01T01:28:11.004Z,12.55
2023-11-01T01:30:38.562Z,12.62
2023-11-01T01:33:05.945Z,13.16
2023-11-01T01:35:33.733Z,12.92
2023-11-01T01:38:01.697Z,12.79
2023-11-01T01:40:29.788Z,12.70
2023-11-01T01:43:20.301Z,12.45
2023-11-01T01:46:00.219Z,12.39
2023-11-01T01:48:27.710Z,12.33
2023-11-01T01:50:56.417Z,12.28
2023-11-01T01:53:24.102Z,12.20
2023-11-01T01:55:52.320Z,12.21
2023-11-01T01:58:19.777Z,12.07
2023-11-01T02:00:49.073Z,12.02
2023-11-01T02:03:16.671Z,12.07
2023-11-01T02:05:44.519Z,12.00
2023-11-01T02:08:11.973Z,12.03
2023-11-01T02:10:40.153Z,11.91
2023-11-01T02:13:15.373Z,11.95
2023-11-01T02:15:44.614Z,11.97
2023-11-01T02:18:13.245Z,11.88
2023-11-01T02:20:42.732Z,11.83
2023-11-01T02:23:11.918Z,11.85
2023-11-01T02:25:40.495Z,11.78
2023-11-01T02:28:11.450Z,11.75
2023-11-01T02:30:41.282Z,11.68
2023-11-01T02:33:09.479Z,11.62
2023-11-01T02:35:37.061Z,11.62
2023-11-01T02:38:04.497Z,11.58
2023-11-01T02:40:32.484Z,11.60
2023-11-01T02:42:59.977Z,11.57
2023-11-01T02:45:28.587Z,11.57
2023-11-01T02:47:57.463Z,11.65
2023-11-01T02:50:25.144Z,11.56
2023-11-01T02:52:52.463Z,11.58
2023-11-01T02:55:20.142Z,11.69
2023-11-01T02:57:47.447Z,11.68
2023-11-01T03:00:22.205Z,11.71
2023-11-01T03:02:50.742Z,11.77
2023-11-01T03:05:18.684Z,11.82
2023-11-01T03:07:46.109Z,11.84
2023-11-01T03:10:13.812Z,11.84
2023-11-01T03:12:42.091Z,11.92
2023-11-01T03:15:10.111Z,11.91
2023-11-01T03:17:38.074Z,11.92
2023-11-01T03:20:09.084Z,11.92
2023-11-01T03:22:36.561Z,11.94
2023-11-01T03:25:05.128Z,12.03
2023-11-01T03:27:32.465Z,12.06
2023-11-01T03:29:59.999Z,11.93
2023-11-01T03:32:27.408Z,11.91
2023-11-01T03:34:55.163Z,11.95
2023-11-01T03:37:22.467Z,11.93
2023-11-01T03:39:50.130Z,11.80
2023-11-01T03:42:18.072Z,11.75
2023-11-01T03:44:48.717Z,11.58
2023-11-01T03:47:18.599Z,11.59
2023-11-01T03:49:46.339Z,11.40
2023-11-01T03:52:13.501Z,11.38
2023-11-01T03:54:41.088Z,11.37
2023-11-01T03:57:08.412Z,11.16
2023-11-01T03:59:36.710Z,10.99
2023-11-01T04:02:04.262Z,10.97
2023-11-01T04:04:31.961Z,10.85
2023-11-01T04:06:59.208Z,10.86
2023-11-01T04:09:27.003Z,10.81
2023-11-01T04:11:55.754Z,10.71
2023-11-01T04:14:23.299Z,10.74
2023-11-01T04:16:50.613Z,10.70
2023-11-01T04:19:18.752Z,10.66
2023-11-01T04:21:46.001Z,10.65
2023-11-01T04:24:13.584Z,10.68
2023-11-01T04:26:41.220Z,10.63
2023-11-01T04:29:09.146Z,10.59
2023-11-01T04:31:36.739Z,10.59
2023-11-01T04:34:04.278Z,10.61
2023-11-01T04:36:31.535Z,10.62
2023-11-01T04:38:59.469Z,10.49
2023-11-01T04:41:29.323Z,10.49
2023-11-01T04:43:57.231Z,10.47
2023-11-01T04:46:24.759Z,10.53
2023-11-01T04:48:52.359Z,10.53
2023-11-01T04:51:19.576Z,10.60
2023-11-01T04:53:47.880Z,10.64
2023-11-01T04:56:15.176Z,10.66
2023-11-01T04:58:42.810Z,10.57
2023-11-01T05:01:10.258Z,10.47
2023-11-01T05:03:39.049Z,10.53
2023-11-01T05:06:07.551Z,10.55
2023-11-01T05:08:38.392Z,10.58
2023-11-01T05:11:06.513Z,10.40
2023-11-01T05:13:34.364Z,10.44
2023-11-01T05:16:01.757Z,10.51
2023-11-01T05:18:29.541Z,10.49
2023-11-01T05:20:56.946Z,10.55
2023-11-01T05:23:24.613Z,10.44
2023-11-01T05:25:51.780Z,10.52
2023-11-01T05:28:19.408Z,10.59
2023-11-01T05:30:47.716Z,10.52
2023-11-01T05:33:16.121Z,10.48
2023-11-01T05:35:43.981Z,10.52
2023-11-01T05:38:11.727Z,10.48
2023-11-01T05:40:39.374Z,10.36
2023-11-01T05:43:07.068Z,10.30
2023-11-01T05:45:35.295Z,10.27
2023-11-01T05:48:10.177Z,10.23
2023-11-01T05:50:38.391Z,10.22
2023-11-01T05:53:10.922Z,10.35
2023-11-01T05:55:54.067Z,10.39
2023-11-01T05:58:27.653Z,10.53
2023-11-01T06:00:55.163Z,10.75
2023-11-01T06:03:26.584Z,10.66
2023-11-01T06:05:54.366Z,11.89
2023-11-01T06:08:21.973Z,11.30
2023-11-01T06:10:49.491Z,11.44
2023-11-01T06:13:17.052Z,11.02
2023-11-01T06:15:44.892Z,10.99
2023-11-01T06:18:12.826Z,11.18
2023-11-01T06:20:40.330Z,13.67
2023-11-01T06:23:10.724Z,14.76
2023-11-01T06:25:38.542Z,15.73
2023-11-01T06:28:06.072Z,16.43
2023-11-01T06:30:33.247Z,16.16
2023-11-01T06:33:00.955Z,16.81
2023-11-01T06:35:29.517Z,17.79
2023-11-01T06:37:57.092Z,19.10
2023-11-01T06:40:24.705Z,19.18
2023-11-01T06:42:52.831Z,18.38
2023-11-01T06:45:20.176Z,20.36
2023-11-01T06:47:48.469Z,18.92
2023-11-01T06:50:15.888Z,18.32
2023-11-01T06:52:46.723Z,18.32
2023-11-01T06:55:17.632Z,19.94
2023-11-01T06:57:45.846Z,21.17
2023-11-01T07:00:15.171Z,22.21
2023-11-01T07:02:44.122Z,21.43
2023-11-01T07:05:11.623Z,22.69
2023-11-01T07:07:39.818Z,22.36
2023-11-01T07:10:09.272Z,20.66
2023-11-01T07:12:40.581Z,19.31
2023-11-01T07:15:09.805Z,20.04
2023-11-01T07:17:37.988Z,21.73
2023-11-01T07:20:09.610Z,19.70
2023-11-01T07:22:37.509Z,20.97
2023-11-01T07:25:05.605Z,22.80
2023-11-01T07:27:33.314Z,21.31
2023-11-01T07:30:01.003Z,21.41
2023-11-01T07:32:28.772Z,21.62
2023-11-01T07:34:56.051Z,22.80
2023-11-01T07:37:25.652Z,21.08
2023-11-01T07:39:52.812Z,20.08
2023-11-01T07:42:20.421Z,18.63
2023-11-01T07:44:47.945Z,21.52
2023-11-01T07:47:15.611Z,22.44
2023-11-01T07:49:42.896Z,20.64
2023-11-01T07:52:11.121Z,20.38
2023-11-01T07:54:38.330Z,19.36
2023-11-01T07:57:05.955Z,19.60
2023-11-01T07:59:33.293Z,20.70
2023-11-01T08:02:02.148Z,21.17
2023-11-01T08:04:30.105Z,21.34
2023-11-01T08:06:58.040Z,22.07
2023-11-01T08:09:28.616Z,23.09
2023-11-01T08:11:56.282Z,23.45
2023-11-01T08:14:23.704Z,23.01
2023-11-01T08:16:51.290Z,23.63
2023-11-01T08:19:18.499Z,23.59
2023-11-01T08:21:46.053Z,22.05
2023-11-01T08:24:13.595Z,22.79
2023-11-01T08:26:41.780Z,21.45
2023-11-01T08:29:11.232Z,21.58
2023-11-01T08:31:38.977Z,20.64
2023-11-01T08:34:06.315Z,22.34
2023-11-01T08:36:33.914Z,22.66
2023-11-01T08:39:01.115Z,23.81
2023-11-01T08:41:31.330Z,23.47
2023-11-01T08:43:58.787Z,23.21
2023-11-01T08:46:26.367Z,22.83
2023-11-01T08:48:54.496Z,23.27
2023-11-01T08:51:22.165Z,23.27
2023-11-01T08:53:49.478Z,23.33
2023-11-01T08:56:18.536Z,22.92
2023-11-01T08:58:47.930Z,23.13
2023-11-01T09:01:18.012Z,23.43
2023-11-01T09:03:47.541Z,22.86
2023-11-01T09:06:16.694Z,22.88
2023-11-01T09:08:47.658Z,22.37
2023-11-01T09:11:17.384Z,21.68
2023-11-01T09:13:47.578Z,22.95
2023-11-01T09:16:15.217Z,24.14
2023-11-01T09:18:44.990Z,24.17
2023-11-01T09:21:16.826Z,24.06
2023-11-01T09:23:46.627Z,22.65
2023-11-01T09:26:16.698Z,22.56
2023-11-01T09:28:45.160Z,22.70
2023-11-01T09:31:12.800Z,22.68
2023-11-01T09:33:40.287Z,22.30
2023-11-01T09:36:12.618Z,23.77
2023-11-01T09:38:41.127Z,23.79
2023-11-01T09:41:11.324Z,23.42
2023-11-01T09:43:41.272Z,23.39
2023-11-01T09:46:13.194Z,22.88
2023-11-01T09:48:43.607Z,22.34
2023-11-01T09:51:12.108Z,22.93
2023-11-01T09:53:39.561Z,23.34
2023-11-01T09:56:07.588Z,23.95
2023-11-01T09:58:35.391Z,24.76
2023-11-01T10:01:03.475Z,23.86
2023-11-01T10:03:30.867Z,21.58
2023-11-01T10:05:58.544Z,22.14
2023-11-01T10:08:26.003Z,23.15
2023-11-01T10:10:53.645Z,24.23
2023-11-01T10:13:21.195Z,24.08
2023-11-01T10:15:51.461Z,23.05
2023-11-01T10:18:18.816Z,23.76
2023-11-01T10:20:47.795Z,22.78
2023-11-01T10:23:15.388Z,23.91
2023-11-01T10:25:46.430Z,23.86
2023-11-01T10:28:16.491Z,24.80
2023-11-01T10:30:47.289Z,24.75
2023-11-01T10:33:16.072Z,24.48
2023-11-01T10:35:43.804Z,24.86
2023-11-01T10:38:11.189Z,25.32
2023-11-01T10:40:40.155Z,25.21
2023-11-01T10:43:08.637Z,25.33
2023-11-01T10:45:36.350Z,25.43
2023-11-01T10:48:06.464Z,25.10
2023-11-01T10:50:35.702Z,24.49
2023-11-01T10:53:04.242Z,24.27
2023-11-01T10:55:32.975Z,23.36
2023-11-01T10:58:00.959Z,22.78
2023-11-01T11:00:44.704Z,24.46
2023-11-01T11:03:34.153Z,24.49
2023-11-01T11:06:11.118Z,23.42
2023-11-01T11:08:38.534Z,24.49
2023-11-01T11:11:18.501Z,23.97
2023-11-01T11:13:52.454Z,24.52
2023-11-01T11:16:22.363Z,24.88
2023-11-01T11:18:51.440Z,22.79
2023-11-01T11:22:00.590Z,23.62
2023-11-01T11:24:46.041Z,23.35
2023-11-01T11:28:03.513Z,23.66
2023-11-01T11:31:10.172Z,23.42
2023-11-01T11:33:44.967Z,22.48
2023-11-01T11:36:20.280Z,23.11
2023-11-01T11:38:49.202Z,23.43
2023-11-01T11:41:25.620Z,23.98
2023-11-01T11:44:00.296Z,23.84
2023-11-01T11:46:31.675Z,23.84
2023-11-01T11:49:03.107Z,23.00
2023-11-01T11:51:31.347Z,22.30
2023-11-01T11:53:58.915Z,22.56
2023-11-01T11:56:26.426Z,23.15
2023-11-01T11:58:54.681Z,23.17
2023-11-01T12:04:53.927Z,22.68
2023-11-01T12:07:22.716Z,23.67
2023-11-01T12:09:51.918Z,23.75
2023-11-01T12:12:20.289Z,24.01
2023-11-01T12:15:01.391Z,24.49
2023-11-01T12:17:30.260Z,23.68
2023-11-01T12:19:58.392Z,22.92
2023-11-01T12:22:26.574Z,22.69
2023-11-01T12:24:56.790Z,23.26
2023-11-01T12:27:33.572Z,22.18
2023-11-01T12:30:02.154Z,21.20
2023-11-01T12:32:43.225Z,20.97
2023-11-01T12:35:12.478Z,22.09
2023-11-01T12:37:43.395Z,22.07
2023-11-01T12:40:18.485Z,21.83
2023-11-01T12:42:51.495Z,22.47
2023-11-01T12:45:21.435Z,23.05
2023-11-01T12:47:54.432Z,22.95
2023-11-01T12:50:26.182Z,21.81
2023-11-01T12:52:54.818Z,21.68
2023-11-01T12:55:22.388Z,21.41
2023-11-01T12:58:01.034Z,21.97
2023-11-01T13:00:30.399Z,21.81
2023-11-01T13:02:58.703Z,20.48
2023-11-01T13:05:27.091Z,20.85
2023-11-01T13:07:58.364Z,21.29
2023-11-01T13:10:26.356Z,21.11
2023-11-01T13:12:54.076Z,21.35
2023-11-01T13:15:21.848Z,21.76
2023-11-01T13:17:50.282Z,21.41
2023-11-01T13:20:18.084Z,21.85
2023-11-01T13:22:46.001Z,20.99
2023-11-01T13:25:13.591Z,21.36
2023-11-01T13:27:41.891Z,21.72
2023-11-01T13:30:11.162Z,21.17
2023-11-01T13:32:40.236Z,20.69
2023-11-01T13:35:08.598Z,20.92
2023-11-01T13:37:36.943Z,19.96
2023-11-01T13:40:10.824Z,20.01
2023-11-01T13:42:38.761Z,20.22
2023-11-01T13:45:06.559Z,20.31
2023-11-01T13:47:34.586Z,20.94
2023-11-01T13:50:02.114Z,20.52
2023-11-01T13:52:29.770Z,19.46
2023-11-01T13:54:57.220Z,19.15
2023-11-01T13:57:24.942Z,18.31
2023-11-01T13:59:52.267Z,18.46
2023-11-01T14:02:23.582Z,19.10
2023-11-01T14:04:51.155Z,19.16
2023-11-01T14:07:18.777Z,18.31
2023-11-01T14:09:46.129Z,18.29
2023-11-01T14:12:13.494Z,19.19
2023-11-01T14:14:41.607Z,19.41
2023-11-01T14:17:09.016Z,19.87
2023-11-01T14:19:37.312Z,18.87
2023-11-01T14:22:06.059Z,19.43
2023-11-01T14:24:33.879Z,18.48
2023-11-01T14:27:03.600Z,18.44
2023-11-01T14:29:33.612Z,17.85
2023-11-01T14:32:01.019Z,18.34
2023-11-01T14:34:29.323Z,18.00
2023-11-01T14:36:57.725Z,18.51
2023-11-01T14:39:26.327Z,17.92
2023-11-01T14:41:53.950Z,18.02
2023-11-01T14:44:21.786Z,17.03
2023-11-01T14:46:49.157Z,17.31
2023-11-01T14:52:08.587Z,16.79
2023-11-01T14:54:36.248Z,17.07
2023-11-01T14:57:04.113Z,17.38
2023-11-01T14:59:31.974Z,17.20
2023-11-01T15:02:03.456Z,17.22
2023-11-01T15:04:31.284Z,16.72
2023-11-01T15:06:58.949Z,16.79
2023-11-01T15:09:26.661Z,16.89
2023-11-01T15:11:54.157Z,17.02
2023-11-01T15:14:21.814Z,16.73
2023-11-01T15:16:50.843Z,16.97
2023-11-01T15:19:18.684Z,17.27
2023-11-01T15:21:46.382Z,16.91
2023-11-01T15:24:15.087Z,16.96
2023-11-01T15:26:46.673Z,16.17
2023-11-01T15:29:14.523Z,16.00
2023-11-01T15:31:42.634Z,16.33
2023-11-01T15:34:10.363Z,16.20
2023-11-01T15:36:38.126Z,16.11
2023-11-01T15:39:08.189Z,16.44
2023-11-01T15:41:35.681Z,16.33
2023-11-01T15:44:03.670Z,16.17
2023-11-01T15:46:31.010Z,15.81
2023-11-01T15:48:58.619Z,16.18
2023-11-01T15:51:26.579Z,16.15
2023-11-01T15:53:54.314Z,15.77
2023-11-01T15:56:22.124Z,15.79
2023-11-01T15:58:49.935Z,16.26
2023-11-01T16:01:17.905Z,16.03
2023-11-01T16:03:45.979Z,15.87
2023-11-01T16:06:13.538Z,15.64
2023-11-01T16:08:41.958Z,15.77
2023-11-01T16:11:12.477Z,15.85
2023-11-01T16:13:43.379Z,15.57
2023-11-01T16:16:11.532Z,15.61
2023-11-01T16:18:39.441Z,15.19
2023-11-01T16:21:07.106Z,15.05
2023-11-01T16:23:35.126Z,15.21
2023-11-01T16:26:02.406Z,14.62
2023-11-01T16:28:30.930Z,14.88
2023-11-01T16:30:58.465Z,14.78
2023-11-01T16:33:26.586Z,14.91
2023-11-01T16:35:54.097Z,15.15
2023-11-01T16:38:21.793Z,14.87
2023-11-01T16:40:49.293Z,14.60
2023-11-01T16:43:17.471Z,14.95
2023-11-01T16:45:44.890Z,14.61
2023-11-01T16:48:12.670Z,14.19
2023-11-01T16:50:40.172Z,14.27
2023-11-01T16:53:10.813Z,14.57
2023-11-01T16:55:45.534Z,14.24
2023-11-01T16:58:14.250Z,14.64
2023-11-01T17:00:41.624Z,14.33
2023-11-01T17:03:09.750Z,14.44
2023-11-01T17:05:38.685Z,14.33
2023-11-01T17:08:07.380Z,14.05
2023-11-01T17:10:35.154Z,14.05
2023-11-01T17:13:02.760Z,14.03
2023-11-01T17:15:30.104Z,14.26
2023-11-01T17:17:58.428Z,14.33
2023-11-01T17:20:26.464Z,14.02
2023-11-01T17:22:54.323Z,14.05
2023-11-01T17:25:54.417Z,13.82
2023-11-01T17:28:35.799Z,14.01
2023-11-01T17:31:15.771Z,14.28
2023-11-01T17:33:45.881Z,14.13
2023-11-01T17:36:21.268Z,13.95
2023-11-01T17:38:49.085Z,13.88
2023-11-01T17:41:51.592Z,13.86
2023-11-01T17:44:21.074Z,13.89
2023-11-01T17:46:48.447Z,13.90
2023-11-01T17:49:48.768Z,14.01
2023-11-01T17:52:30.277Z,14.48
2023-11-01T17:54:59.084Z,14.06
2023-11-01T17:57:26.563Z,14.10
2023-11-01T17:59:55.930Z,14.08
2023-11-01T18:02:32.618Z,13.94
2023-11-01T18:05:01.899Z,14.10
2023-11-01T18:07:29.429Z,13.89
2023-11-01T18:09:58.740Z,13.90
2023-11-01T18:12:31.914Z,14.22
2023-11-01T18:14:59.699Z,14.41
2023-11-01T18:17:33.183Z,14.27
2023-11-01T18:20:10.994Z,14.10
2023-11-01T18:23:00.043Z,14.10
2023-11-01T18:25:30.737Z,14.29
2023-11-01T18:28:02.054Z,14.43
2023-11-01T18:30:29.850Z,14.40
2023-11-01T18:32:58.932Z,14.02
2023-11-01T18:35:31.306Z,13.90
2023-11-01T18:37:58.684Z,13.94
2023-11-01T18:40:27.500Z,14.00
2023-11-01T18:42:58.823Z,14.23
2023-11-01T18:45:26.699Z,14.13
2023-11-01T18:47:55.820Z,14.15
2023-11-01T18:50:23.920Z,14.43
2023-11-01T18:52:51.320Z,14.36
2023-11-01T18:55:33.286Z,14.14
2023-11-01T18:58:00.697Z,14.22
2023-11-01T19:00:29.038Z,14.01
2023-11-01T19:03:09.318Z,13.57
2023-11-01T19:05:41.269Z,13.26
2023-11-01T19:08:10.960Z,13.14
2023-11-01T19:10:41.422Z,13.05
2023-11-01T19:13:09.413Z,12.99
2023-11-01T19:15:38.188Z,12.97
2023-11-01T19:18:11.028Z,13.01
2023-11-01T19:20:50.758Z,12.95
2023-11-01T19:23:18.604Z,12.96
2023-11-01T19:25:47.847Z,12.94
2023-11-01T19:28:15.944Z,12.92
2023-11-01T19:30:44.413Z,13.00
2023-11-01T19:33:22.510Z,12.91
2023-11-01T19:36:02.005Z,12.95
2023-11-01T19:38:36.178Z,12.92
2023-11-01T19:41:07.300Z,12.99
2023-11-01T19:43:38.230Z,12.98
2023-11-01T19:46:08.249Z,12.93
2023-11-01T19:48:38.520Z,12.93
2023-11-01T19:51:10.707Z,12.94
2023-11-01T19:53:37.976Z,12.97
2023-11-01T19:56:05.694Z,13.01
2023-11-01T19:58:34.004Z,13.10
2023-11-01T20:01:03.195Z,13.03
2023-11-01T20:03:49.367Z,12.96
2023-11-01T20:06:17.733Z,12.94
2023-11-01T20:08:45.768Z,13.03
2023-11-01T20:11:14.026Z,12.99
2023-11-01T20:13:41.854Z,12.92
2023-11-01T20:16:15.629Z,12.77
2023-11-01T20:18:50.639Z,12.74
2023-11-01T20:21:18.521Z,12.76
2023-11-01T20:23:45.965Z,12.76
2023-11-01T20:26:13.621Z,12.71
2023-11-01T20:28:40.890Z,12.67
2023-11-01T20:31:10.968Z,12.64
2023-11-01T20:33:38.457Z,12.62
2023-11-01T20:36:06.926Z,12.62
2023-11-01T20:38:35.598Z,12.57
2023-11-01T20:41:04.612Z,12.63
2023-11-01T20:43:33.228Z,12.58
2023-11-01T20:46:01.329Z,12.52
2023-11-01T20:48:31.441Z,12.53
2023-11-01T20:50:59.610Z,12.54
2023-11-01T20:53:28.573Z,12.57
2023-11-01T20:55:57.394Z,12.52
2023-11-01T20:58:28.793Z,12.51
2023-11-01T21:00:59.660Z,12.53
2023-11-01T21:03:27.952Z,12.55
2023-11-01T21:05:55.988Z,12.56
2023-11-01T21:08:23.363Z,12.58
2023-11-01T21:10:53.256Z,12.56
2023-11-01T21:13:20.628Z,12.58
2023-11-01T21:15:50.094Z,12.56
2023-11-01T21:18:20.678Z,12.59
2023-11-01T21:20:49.703Z,12.60
2023-11-01T21:23:19.197Z,12.56
2023-11-01T21:25:50.051Z,12.54
2023-11-01T21:28:17.478Z,12.55
2023-11-01T21:30:45.225Z,12.56
2023-11-01T21:33:12.762Z,12.52
2023-11-01T21:35:43.548Z,12.50
2023-11-01T21:38:11.692Z,12.52
2023-11-01T21:40:40.342Z,12.48
2023-11-01T21:43:10.468Z,12.53
2023-11-01T21:45:50.158Z,12.52
2023-11-01T21:48:24.244Z,12.63
2023-11-01T21:51:03.726Z,12.68
2023-11-01T21:53:34.151Z,12.69
2023-11-01T21:56:02.202Z,12.72
2023-11-01T21:58:35.133Z,12.71
2023-11-01T22:01:07.742Z,12.75
2023-11-01T22:03:38.623Z,12.76
2023-11-01T22:06:30.513Z,12.70
2023-11-01T22:09:19.741Z,12.77
2023-11-01T22:11:51.689Z,12.68
2023-11-01T22:14:46.103Z,12.61
2023-11-01T22:17:42.742Z,12.60
2023-11-01T22:20:24.261Z,12.65
2023-11-01T22:23:01.317Z,12.60
2023-11-01T22:25:45.439Z,12.57
2023-11-01T22:28:15.513Z,12.60
2023-11-01T22:30:42.851Z,12.54
2023-11-01T22:33:14.593Z,12.58
2023-11-01T22:35:44.228Z,12.64
2023-11-01T22:38:14.839Z,12.59
2023-11-01T22:40:44.170Z,12.62
2023-11-01T22:43:15.278Z,12.69
2023-11-01T22:45:43.430Z,12.69
2023-11-01T22:48:13.512Z,12.70
2023-11-01T22:50:43.304Z,12.66
2023-11-01T22:53:13.013Z,12.58
2023-11-01T22:55:42.327Z,12.51
2023-11-01T22:58:11.261Z,12.51
2023-11-01T23:00:39.049Z,12.50
2023-11-01T23:03:07.853Z,12.42
2023-11-01T23:05:36.137Z,12.49
2023-11-01T23:08:04.189Z,12.56
2023-11-01T23:10:34.501Z,12.56
2023-11-01T23:13:02.164Z,12.52
2023-11-01T23:15:31.128Z,12.53
2023-11-01T23:17:59.211Z,12.54
2023-11-01T23:20:29.972Z,12.50
2023-11-01T23:22:59.443Z,12.45
2023-11-01T23:25:32.249Z,12.36
2023-11-01T23:28:08.109Z,12.30
2023-11-01T23:30:49.956Z,12.29
2023-11-01T23:33:17.935Z,12.27
2023-11-01T23:35:46.641Z,12.23
2023-11-01T23:38:17.771Z,12.17
2023-11-01T23:40:45.225Z,12.14
2023-11-01T23:43:15.391Z,12.22
2023-11-01T23:46:14.671Z,12.18
2023-11-01T23:48:44.714Z,12.19
2023-11-01T23:51:47.067Z,12.11
2023-11-01T23:54:21.413Z,12.06
2023-11-01T23:56:48.968Z,12.10
2023-11-01T23:59:18.594Z,12.08
